Time,TemperatureF,DewpointF,PressureIn,WindDirection,WindDirectionDegrees,WindSpeedMPH,WindSpeedGustMPH,Humidity,HourlyPrecipIn,Conditions,Clouds,dailyrainin,SoftwareType,DateUTC
2013-01-29 00:04:00,16.8,14.1,29.79,SSW,209,3.0,3.0,89,0.00,,,0.00,Wunderground v.1.15,2013-01-29 07:04:00,
2013-01-29 00:09:00,17.0,14.3,29.79,SW,214,5.0,5.0,89,0.00,,,0.00,Wunderground v.1.15,2013-01-29 07:09:00,
2013-01-29 00:15:00,17.1,14.4,29.79,SSW,205,4.0,5.0,89,0.00,,,0.00,Wunderground v.1.15,2013-01-29 07:15:00,
2013-01-29 00:21:00,17.5,14.8,29.78,SW,216,4.0,4.0,89,0.00,,,0.00,Wunderground v.1.15,2013-01-29 07:21:00,
2013-01-29 00:27:00,17.9,15.2,29.78,SW,215,3.0,6.0,89,0.00,,,0.00,Wunderground v.1.15,2013-01-29 07:27:00,
2013-01-29 00:32:00,18.1,15.4,29.78,SSW,212,2.0,5.0,89,0.00,,,0.00,Wunderground v.1.15,2013-01-29 07:32:00,
2013-01-29 00:38:00,18.2,15.5,29.78,SSW,209,5.0,7.0,89,0.00,,,0.00,Wunderground v.1.15,2013-01-29 07:38:00,
2013-01-29 00:44:00,18.2,15.5,29.78,SW,219,5.0,5.0,89,0.00,,,0.00,Wunderground v.1.15,2013-01-29 07:44:00,
2013-01-29 00:49:00,18.3,15.6,29.78,SSW,213,4.0,5.0,89,0.00,,,0.00,Wunderground v.1.15,2013-01-29 07:49:00,
2013-01-29 00:55:00,18.3,15.6,29.77,WSW,237,6.0,7.0,89,0.00,,,0.00,Wunderground v.1.15,2013-01-29 07:55:00,
2013-01-29 01:00:00,18.2,15.5,29.77,SSW,206,6.0,9.0,89,0.00,,,0.00,Wunderground v.1.15,2013-01-29 08:00:00,
2013-01-29 01:06:00,18.1,15.4,29.77,SSW,193,5.0,6.0,89,0.00,,,0.00,Wunderground v.1.15,2013-01-29 08:06:00,
2013-01-29 01:11:00,18.0,15.3,29.77,SSW,209,6.0,7.0,89,0.00,,,0.00,Wunderground v.1.15,2013-01-29 08:11:00,
2013-01-29 01:16:00,18.1,15.4,29.77,SW,221,6.0,6.0,89,0.00,,,0.00,Wunderground v.1.15,2013-01-29 08:16:00,
2013-01-29 01:22:00,18.1,15.4,29.77,South,188,8.0,8.0,89,0.00,,,0.00,Wunderground v.1.15,2013-01-29 08:22:00,
2013-01-29 01:27:00,17.9,15.2,29.77,South,186,7.0,8.0,89,0.00,,,0.00,Wunderground v.1.15,2013-01-29 08:27:00,
2013-01-29 01:33:00,17.8,15.1,29.77,SSW,208,5.0,7.0,89,0.00,,,0.00,Wunderground v.1.15,2013-01-29 08:33:00,
2013-01-29 01:39:00,17.8,15.1,29.77,SSW,208,4.0,7.0,89,0.00,,,0.00,Wunderground v.1.15,2013-01-29 08:39:00,
2013-01-29 01:44:00,17.6,14.9,29.77,SW,223,3.0,7.0,89,0.00,,,0.00,Wunderground v.1.15,2013-01-29 08:44:00,
2013-01-29 01:50:00,17.5,14.8,29.77,SSW,213,2.0,7.0,89,0.00,,,0.00,Wunderground v.1.15,2013-01-29 08:50:00,
2013-01-29 01:55:00,17.3,14.6,29.77,SSW,196,7.0,9.0,89,0.00,,,0.00,Wunderground v.1.15,2013-01-29 08:55:00,
2013-01-29 02:00:00,17.2,14.5,29.77,SSW,213,1.0,9.0,89,0.00,,,0.00,Wunderground v.1.15,2013-01-29 09:00:00,
2013-01-29 02:05:00,17.1,14.4,29.77,SW,214,4.0,8.0,89,0.00,,,0.00,Wunderground v.1.15,2013-01-29 09:05:00,
2013-01-29 02:10:00,17.0,14.3,29.77,SSW,203,1.0,8.0,89,0.00,,,0.00,Wunderground v.1.15,2013-01-29 09:10:00,
2013-01-29 02:15:00,16.9,14.2,29.76,SSW,205,4.0,7.0,89,0.00,,,0.00,Wunderground v.1.15,2013-01-29 09:15:00,
2013-01-29 02:20:00,16.8,14.1,29.76,SSW,202,1.0,7.0,89,0.00,,,0.00,Wunderground v.1.15,2013-01-29 09:20:00,
2013-01-29 02:25:00,16.7,14.0,29.76,South,188,2.0,6.0,89,0.00,,,0.00,Wunderground v.1.15,2013-01-29 09:25:00,
2013-01-29 02:30:00,16.7,14.0,29.76,South,186,2.0,7.0,89,0.00,,,0.00,Wunderground v.1.15,2013-01-29 09:30:00,
2013-01-29 02:35:00,16.6,13.9,29.76,South,188,4.0,6.0,89,0.00,,,0.00,Wunderground v.1.15,2013-01-29 09:35:00,
2013-01-29 02:40:00,16.4,13.7,29.76,SSW,196,2.0,8.0,89,0.00,,,0.00,Wunderground v.1.15,2013-01-29 09:40:00,
2013-01-29 02:45:00,16.4,13.7,29.76,SSW,200,6.0,6.0,89,0.00,,,0.00,Wunderground v.1.15,2013-01-29 09:45:00,
2013-01-29 02:50:00,16.2,13.3,29.76,SW,222,4.0,8.0,88,0.00,,,0.00,Wunderground v.1.15,2013-01-29 09:50:00,
2013-01-29 02:55:00,16.1,13.2,29.76,South,189,6.0,6.0,88,0.00,,,0.00,Wunderground v.1.15,2013-01-29 09:55:00,
2013-01-29 03:00:00,16.0,13.3,29.76,SSW,211,4.0,9.0,89,0.00,,,0.00,Wunderground v.1.15,2013-01-29 10:00:00,
2013-01-29 03:05:00,16.1,13.2,29.76,SW,218,5.0,8.0,88,0.00,,,0.00,Wunderground v.1.15,2013-01-29 10:05:00,
2013-01-29 03:10:00,16.0,13.3,29.76,SSW,193,5.0,9.0,89,0.00,,,0.00,Wunderground v.1.15,2013-01-29 10:10:00,
2013-01-29 03:15:00,15.8,12.9,29.76,SW,215,2.0,8.0,88,0.00,,,0.00,Wunderground v.1.15,2013-01-29 10:15:00,
2013-01-29 03:20:00,15.8,12.9,29.76,South,188,1.0,8.0,88,0.00,,,0.00,Wunderground v.1.15,2013-01-29 10:20:00,
2013-01-29 03:25:00,15.7,12.8,29.76,SSW,206,1.0,6.0,88,0.00,,,0.00,Wunderground v.1.15,2013-01-29 10:25:00,
2013-01-29 03:30:00,15.7,12.8,29.76,SW,226,0.0,6.0,88,0.00,,,0.00,Wunderground v.1.15,2013-01-29 10:30:00,
2013-01-29 03:35:00,15.6,12.7,29.76,SW,225,2.0,4.0,88,0.00,,,0.00,Wunderground v.1.15,2013-01-29 10:35:00,
2013-01-29 03:40:00,15.4,12.5,29.77,SW,230,4.0,5.0,88,0.00,,,0.00,Wunderground v.1.15,2013-01-29 10:40:00,
2013-01-29 03:45:00,15.3,12.4,29.77,SW,229,4.0,6.0,88,0.00,,,0.00,Wunderground v.1.15,2013-01-29 10:45:00,
2013-01-29 03:50:00,15.3,12.4,29.76,SSW,208,4.0,6.0,88,0.00,,,0.00,Wunderground v.1.15,2013-01-29 10:50:00,
2013-01-29 03:55:00,15.3,12.4,29.77,SW,228,2.0,5.0,88,0.00,,,0.00,Wunderground v.1.15,2013-01-29 10:55:00,
2013-01-29 04:00:00,15.0,12.1,29.77,SW,227,2.0,5.0,88,0.00,,,0.00,Wunderground v.1.15,2013-01-29 11:00:00,
2013-01-29 04:05:00,15.1,12.2,29.77,SSW,200,0.0,5.0,88,0.00,,,0.00,Wunderground v.1.15,2013-01-29 11:05:00,
2013-01-29 04:11:00,15.2,12.3,29.77,SSW,200,2.0,5.0,88,0.00,,,0.00,Wunderground v.1.15,2013-01-29 11:11:00,
2013-01-29 04:16:00,15.4,12.5,29.77,SSW,197,2.0,3.0,88,0.00,,,0.00,Wunderground v.1.15,2013-01-29 11:16:00,
2013-01-29 04:21:00,15.6,12.7,29.77,SSW,198,0.0,5.0,88,0.00,,,0.00,Wunderground v.1.15,2013-01-29 11:21:00,
2013-01-29 04:26:00,15.5,12.6,29.77,South,175,0.0,3.0,88,0.00,,,0.00,Wunderground v.1.15,2013-01-29 11:26:00,
2013-01-29 04:31:00,15.4,12.5,29.77,SW,227,4.0,5.0,88,0.00,,,0.00,Wunderground v.1.15,2013-01-29 11:31:00,
2013-01-29 04:36:00,15.4,12.5,29.77,SW,232,1.0,4.0,88,0.00,,,0.00,Wunderground v.1.15,2013-01-29 11:36:00,
2013-01-29 04:41:00,15.5,12.6,29.77,SW,220,2.0,4.0,88,0.00,,,0.00,Wunderground v.1.15,2013-01-29 11:41:00,
2013-01-29 04:46:00,15.7,12.8,29.78,SW,214,4.0,4.0,88,0.00,,,0.00,Wunderground v.1.15,2013-01-29 11:46:00,
2013-01-29 04:51:00,15.6,12.7,29.77,SSW,200,2.0,5.0,88,0.00,,,0.00,Wunderground v.1.15,2013-01-29 11:51:00,
2013-01-29 04:56:00,15.5,12.6,29.78,SW,220,0.0,4.0,88,0.00,,,0.00,Wunderground v.1.15,2013-01-29 11:56:00,
2013-01-29 05:01:00,15.4,12.5,29.78,SW,219,0.0,4.0,88,0.00,,,0.00,Wunderground v.1.15,2013-01-29 12:01:00,
2013-01-29 05:06:00,15.2,12.3,29.78,SW,219,0.0,2.0,88,0.00,,,0.00,Wunderground v.1.15,2013-01-29 12:06:00,
2013-01-29 05:11:00,15.0,12.1,29.78,SW,219,0.0,2.0,88,0.00,,,0.00,Wunderground v.1.15,2013-01-29 12:11:00,
2013-01-29 05:16:00,14.9,12.0,29.78,SW,221,0.0,5.0,88,0.00,,,0.00,Wunderground v.1.15,2013-01-29 12:16:00,
2013-01-29 05:21:00,14.8,11.9,29.79,SW,221,0.0,5.0,88,0.00,,,0.00,Wunderground v.1.15,2013-01-29 12:21:00,
2013-01-29 05:26:00,14.6,11.7,29.78,SW,221,0.0,1.0,88,0.00,,,0.00,Wunderground v.1.15,2013-01-29 12:26:00,
2013-01-29 05:31:00,14.5,11.6,29.79,SW,221,0.0,0.0,88,0.00,,,0.00,Wunderground v.1.15,2013-01-29 12:31:00,
2013-01-29 05:36:00,14.1,10.9,29.79,SW,221,0.0,0.0,87,0.00,,,0.00,Wunderground v.1.15,2013-01-29 12:36:00,
2013-01-29 05:41:00,13.9,10.7,29.79,SW,221,0.0,0.0,87,0.00,,,0.00,Wunderground v.1.15,2013-01-29 12:41:00,
2013-01-29 05:46:00,13.7,10.5,29.79,SW,220,0.0,0.0,87,0.00,,,0.00,Wunderground v.1.15,2013-01-29 12:46:00,
2013-01-29 05:51:00,13.6,10.5,29.79,SW,220,0.0,0.0,87,0.00,,,0.00,Wunderground v.1.15,2013-01-29 12:51:00,
2013-01-29 05:56:00,13.5,10.4,29.79,SW,219,0.0,0.0,87,0.00,,,0.00,Wunderground v.1.15,2013-01-29 12:56:00,
2013-01-29 06:02:00,13.4,10.3,29.80,SW,221,0.0,0.0,87,0.00,,,0.00,Wunderground v.1.15,2013-01-29 13:02:00,
2013-01-29 06:07:00,13.5,10.6,29.80,SW,219,0.0,0.0,88,0.00,,,0.00,Wunderground v.1.15,2013-01-29 13:07:00,
2013-01-29 06:12:00,13.5,10.4,29.80,SW,219,0.0,0.0,87,0.00,,,0.00,Wunderground v.1.15,2013-01-29 13:12:00,
2013-01-29 06:18:00,13.4,10.3,29.79,SW,219,0.0,0.0,87,0.00,,,0.00,Wunderground v.1.15,2013-01-29 13:18:00,
2013-01-29 06:23:00,13.1,10.0,29.79,SW,220,0.0,0.0,87,0.00,,,0.00,Wunderground v.1.15,2013-01-29 13:23:00,
2013-01-29 06:28:00,13.0,9.9,29.80,SW,219,0.0,0.0,87,0.00,,,0.00,Wunderground v.1.15,2013-01-29 13:28:00,
2013-01-29 06:33:00,12.9,9.8,29.81,SW,220,0.0,0.0,87,0.00,,,0.00,Wunderground v.1.15,2013-01-29 13:33:00,
2013-01-29 06:38:00,12.9,9.8,29.81,WNW,296,0.0,2.0,87,0.00,,,0.00,Wunderground v.1.15,2013-01-29 13:38:00,
2013-01-29 06:43:00,12.4,9.3,29.81,NNW,330,0.0,2.0,87,0.00,,,0.00,Wunderground v.1.15,2013-01-29 13:43:00,
2013-01-29 06:48:00,12.1,9.0,29.82,NNW,331,1.0,2.0,87,0.00,,,0.00,Wunderground v.1.15,2013-01-29 13:48:00,
2013-01-29 06:53:00,12.1,9.0,29.83,NW,324,0.0,3.0,87,0.00,,,0.00,Wunderground v.1.15,2013-01-29 13:53:00,
2013-01-29 06:58:00,11.7,8.6,29.84,NNW,333,2.0,7.0,87,0.00,,,0.00,Wunderground v.1.15,2013-01-29 13:58:00,
2013-01-29 07:03:00,11.3,8.2,29.84,NNW,331,3.0,7.0,87,0.00,,,0.00,Wunderground v.1.15,2013-01-29 14:03:00,
2013-01-29 07:08:00,11.6,8.5,29.84,North,360,5.0,8.0,87,0.00,,,0.00,Wunderground v.1.15,2013-01-29 14:08:00,
2013-01-29 07:13:00,11.4,8.3,29.84,North,360,4.0,8.0,87,0.00,,,0.00,Wunderground v.1.15,2013-01-29 14:13:00,
2013-01-29 07:18:00,11.1,8.0,29.85,NNW,346,0.0,8.0,87,0.00,,,0.00,Wunderground v.1.15,2013-01-29 14:18:00,
2013-01-29 07:23:00,11.0,7.9,29.85,North,360,7.0,9.0,87,0.00,,,0.00,Wunderground v.1.15,2013-01-29 14:23:00,
2013-01-29 07:28:00,11.2,8.1,29.86,WNW,298,2.0,9.0,87,0.00,,,0.00,Wunderground v.1.15,2013-01-29 14:28:00,
2013-01-29 07:33:00,11.3,8.2,29.86,NW,304,2.0,4.0,87,0.00,,,0.00,Wunderground v.1.15,2013-01-29 14:33:00,
2013-01-29 07:38:00,11.5,8.4,29.87,NW,325,6.0,8.0,87,0.00,,,0.00,Wunderground v.1.15,2013-01-29 14:38:00,
2013-01-29 07:43:00,11.6,8.5,29.87,North,355,4.0,7.0,87,0.00,,,0.00,Wunderground v.1.15,2013-01-29 14:43:00,
2013-01-29 07:48:00,11.7,8.6,29.87,NNW,348,5.0,10.0,87,0.00,,,0.00,Wunderground v.1.15,2013-01-29 14:48:00,
2013-01-29 07:53:00,11.6,8.5,29.87,North,350,5.0,8.0,87,0.00,,,0.00,Wunderground v.1.15,2013-01-29 14:53:00,
2013-01-29 07:58:00,11.6,8.5,29.87,North,9,11.0,11.0,87,0.00,,,0.00,Wunderground v.1.15,2013-01-29 14:58:00,
2013-01-29 08:03:00,11.4,8.3,29.88,North,355,9.0,9.0,87,0.00,,,0.00,Wunderground v.1.15,2013-01-29 15:03:00,
2013-01-29 08:08:00,11.3,8.2,29.88,NNE,14,7.0,11.0,87,0.00,,,0.00,Wunderground v.1.15,2013-01-29 15:08:00,
2013-01-29 08:13:00,11.2,8.1,29.88,North,9,6.0,12.0,87,0.00,,,0.00,Wunderground v.1.15,2013-01-29 15:13:00,
2013-01-29 08:18:00,11.1,8.0,29.89,North,355,6.0,12.0,87,0.00,,,0.00,Wunderground v.1.15,2013-01-29 15:18:00,
2013-01-29 08:23:00,11.0,7.9,29.90,NNW,338,2.0,8.0,87,0.00,,,0.00,Wunderground v.1.15,2013-01-29 15:23:00,
2013-01-29 08:28:00,11.1,8.0,29.90,NNW,344,7.0,8.0,87,0.00,,,0.00,Wunderground v.1.15,2013-01-29 15:28:00,
2013-01-29 08:33:00,11.2,8.1,29.90,North,5,9.0,9.0,87,0.00,,,0.00,Wunderground v.1.15,2013-01-29 15:33:00,
2013-01-29 08:38:00,11.4,8.3,29.91,North,360,5.0,9.0,87,0.00,,,0.00,Wunderground v.1.15,2013-01-29 15:38:00,
2013-01-29 08:43:00,11.4,8.3,29.91,North,360,5.0,10.0,87,0.00,,,0.00,Wunderground v.1.15,2013-01-29 15:43:00,
2013-01-29 08:48:00,11.2,8.1,29.91,NNW,346,7.0,12.0,87,0.00,,,0.00,Wunderground v.1.15,2013-01-29 15:48:00,
2013-01-29 08:53:00,11.0,7.9,29.91,North,360,4.0,11.0,87,0.00,,,0.00,Wunderground v.1.15,2013-01-29 15:53:00,
2013-01-29 08:58:00,10.8,7.4,29.91,North,360,6.0,11.0,86,0.00,,,0.00,Wunderground v.1.15,2013-01-29 15:58:00,
2013-01-29 09:03:00,10.5,7.1,29.92,North,9,9.0,13.0,86,0.00,,,0.00,Wunderground v.1.15,2013-01-29 16:03:00,
2013-01-29 09:08:00,10.3,6.9,29.93,North,355,8.0,13.0,86,0.00,,,0.00,Wunderground v.1.15,2013-01-29 16:08:00,
2013-01-29 09:13:00,10.1,6.7,29.93,North,9,7.0,10.0,86,0.00,,,0.00,Wunderground v.1.15,2013-01-29 16:13:00,
2013-01-29 09:18:00,10.0,6.6,29.94,NNE,24,4.0,11.0,86,0.00,,,0.00,Wunderground v.1.15,2013-01-29 16:18:00,
2013-01-29 09:24:00,9.9,6.6,29.94,North,355,9.0,10.0,86,0.00,,,0.00,Wunderground v.1.15,2013-01-29 16:24:00,
2013-01-29 09:29:00,9.9,6.6,29.94,North,9,5.0,11.0,86,0.00,,,0.00,Wunderground v.1.15,2013-01-29 16:29:00,
2013-01-29 09:33:00,10.2,7.1,29.94,NNE,30,4.0,8.0,87,0.00,,,0.00,Wunderground v.1.15,2013-01-29 16:33:00,
2013-01-29 09:38:00,10.5,7.4,29.95,NNE,16,7.0,9.0,87,0.00,,,0.00,Wunderground v.1.15,2013-01-29 16:38:00,
2013-01-29 09:44:00,10.9,7.8,29.95,NNE,26,5.0,8.0,87,0.00,,,0.00,Wunderground v.1.15,2013-01-29 16:44:00,
2013-01-29 09:49:00,11.1,8.0,29.96,NNE,24,7.0,8.0,87,0.00,,,0.00,Wunderground v.1.15,2013-01-29 16:49:00,
2013-01-29 09:54:00,11.1,8.0,29.96,North,5,5.0,8.0,87,0.00,,,0.00,Wunderground v.1.15,2013-01-29 16:54:00,
2013-01-29 09:59:00,11.3,8.2,29.97,NNE,15,7.0,8.0,87,0.00,,,0.00,Wunderground v.1.15,2013-01-29 16:59:00,
2013-01-29 10:04:00,11.5,8.4,29.97,NNW,346,8.0,8.0,87,0.00,,,0.00,Wunderground v.1.15,2013-01-29 17:04:00,
2013-01-29 10:09:00,11.6,8.5,29.98,NW,326,1.0,8.0,87,0.00,,,0.00,Wunderground v.1.15,2013-01-29 17:09:00,
2013-01-29 10:14:00,11.8,8.7,29.98,NW,321,5.0,8.0,87,0.00,,,0.00,Wunderground v.1.15,2013-01-29 17:14:00,
2013-01-29 10:19:00,12.0,8.9,29.98,North,355,1.0,9.0,87,0.00,,,0.00,Wunderground v.1.15,2013-01-29 17:19:00,
2013-01-29 10:24:00,12.2,9.1,29.99,North,5,7.0,7.0,87,0.00,,,0.00,Wunderground v.1.15,2013-01-29 17:24:00,
2013-01-29 10:29:00,12.5,9.4,29.99,North,360,5.0,7.0,87,0.00,,,0.00,Wunderground v.1.15,2013-01-29 17:29:00,
2013-01-29 10:34:00,12.6,9.5,29.99,NNE,15,6.0,6.0,87,0.00,,,0.00,Wunderground v.1.15,2013-01-29 17:34:00,
2013-01-29 10:39:00,12.7,9.6,29.99,North,360,5.0,7.0,87,0.00,,,0.00,Wunderground v.1.15,2013-01-29 17:39:00,
2013-01-29 10:44:00,12.8,9.7,30.00,North,350,5.0,7.0,87,0.00,,,0.00,Wunderground v.1.15,2013-01-29 17:44:00,
2013-01-29 10:49:00,13.2,10.1,30.00,NW,322,5.0,8.0,87,0.00,,,0.00,Wunderground v.1.15,2013-01-29 17:49:00,
2013-01-29 10:54:00,13.4,10.3,30.01,North,9,6.0,10.0,87,0.00,,,0.00,Wunderground v.1.15,2013-01-29 17:54:00,
2013-01-29 10:59:00,13.5,10.4,30.01,North,355,4.0,10.0,87,0.00,,,0.00,Wunderground v.1.15,2013-01-29 17:59:00,
2013-01-29 11:04:00,13.5,10.4,30.01,North,350,7.0,8.0,87,0.00,,,0.00,Wunderground v.1.15,2013-01-29 18:04:00,
2013-01-29 11:09:00,13.6,10.5,30.02,NNW,327,4.0,8.0,87,0.00,,,0.00,Wunderground v.1.15,2013-01-29 18:09:00,
2013-01-29 11:14:00,13.7,10.5,30.02,NNW,328,5.0,8.0,87,0.00,,,0.00,Wunderground v.1.15,2013-01-29 18:14:00,
2013-01-29 11:19:00,13.7,10.5,30.02,NW,310,2.0,8.0,87,0.00,,,0.00,Wunderground v.1.15,2013-01-29 18:19:00,
2013-01-29 11:24:00,13.8,10.6,30.02,North,355,2.0,8.0,87,0.00,,,0.00,Wunderground v.1.15,2013-01-29 18:24:00,
2013-01-29 11:29:00,13.9,10.7,30.02,NW,313,4.0,8.0,87,0.00,,,0.00,Wunderground v.1.15,2013-01-29 18:29:00,
2013-01-29 11:34:00,13.8,10.6,30.02,NNW,342,0.0,7.0,87,0.00,,,0.00,Wunderground v.1.15,2013-01-29 18:34:00,
2013-01-29 11:39:00,13.7,10.5,30.03,NNW,344,6.0,7.0,87,0.00,,,0.00,Wunderground v.1.15,2013-01-29 18:39:00,
2013-01-29 11:44:00,13.8,10.6,30.03,WNW,295,5.0,8.0,87,0.00,,,0.00,Wunderground v.1.15,2013-01-29 18:44:00,
2013-01-29 11:49:00,13.6,10.5,30.03,WNW,297,4.0,11.0,87,0.00,,,0.00,Wunderground v.1.15,2013-01-29 18:49:00,
2013-01-29 11:55:00,13.5,10.4,30.03,NNW,345,1.0,7.0,87,0.00,,,0.00,Wunderground v.1.15,2013-01-29 18:55:00,
2013-01-29 12:00:00,13.6,10.5,30.03,NW,304,3.0,7.0,87,0.00,,,0.00,Wunderground v.1.15,2013-01-29 19:00:00,
2013-01-29 12:05:00,13.9,11.0,30.04,WSW,248,5.0,6.0,88,0.00,,,0.00,Wunderground v.1.15,2013-01-29 19:05:00,
2013-01-29 12:09:00,14.3,11.4,30.04,North,360,5.0,7.0,88,0.00,,,0.00,Wunderground v.1.15,2013-01-29 19:09:00,
2013-01-29 12:14:00,14.6,11.7,30.04,NW,309,5.0,8.0,88,0.00,,,0.00,Wunderground v.1.15,2013-01-29 19:14:00,
2013-01-29 12:19:00,14.8,11.9,30.04,WNW,301,0.0,8.0,88,0.00,,,0.00,Wunderground v.1.15,2013-01-29 19:19:00,
2013-01-29 12:24:00,15.0,12.1,30.05,NNW,348,7.0,10.0,88,0.00,,,0.00,Wunderground v.1.15,2013-01-29 19:24:00,
2013-01-29 12:29:00,15.1,12.2,30.05,North,9,6.0,11.0,88,0.00,,,0.00,Wunderground v.1.15,2013-01-29 19:29:00,
2013-01-29 12:34:00,15.1,12.2,30.05,North,355,6.0,12.0,88,0.00,,,0.00,Wunderground v.1.15,2013-01-29 19:34:00,
2013-01-29 12:39:00,15.1,12.2,30.05,North,360,4.0,12.0,88,0.00,,,0.00,Wunderground v.1.15,2013-01-29 19:39:00,
2013-01-29 12:44:00,15.4,12.5,30.05,NNW,348,6.0,11.0,88,0.00,,,0.00,Wunderground v.1.15,2013-01-29 19:44:00,
2013-01-29 12:49:00,15.7,12.8,30.05,NW,314,0.0,11.0,88,0.00,,,0.00,Wunderground v.1.15,2013-01-29 19:49:00,
2013-01-29 12:54:00,16.3,13.6,30.05,NW,316,5.0,8.0,89,0.00,,,0.00,Wunderground v.1.15,2013-01-29 19:54:00,
2013-01-29 12:57:00,16.3,13.4,30.06,WNW,302,9.0,14.0,88,0.00,,,0.00,Wunderground v.1.15,2013-01-29 19:57:00,
2013-01-29 13:02:00,16.0,13.1,30.06,NNW,327,5.0,8.0,88,0.00,,,0.00,Wunderground v.1.15,2013-01-29 20:02:00,
2013-01-29 13:07:00,15.9,13.0,30.06,NNW,347,5.0,12.0,88,0.00,,,0.00,Wunderground v.1.15,2013-01-29 20:07:00,
2013-01-29 13:12:00,16.0,13.1,30.06,NW,326,6.0,12.0,88,0.00,,,0.00,Wunderground v.1.15,2013-01-29 20:12:00,
2013-01-29 13:18:00,16.2,13.3,30.07,West,279,1.0,13.0,88,0.00,,,0.00,Wunderground v.1.15,2013-01-29 20:18:00,
2013-01-29 13:23:00,16.5,13.8,30.07,WNW,294,6.0,6.0,89,0.00,,,0.00,Wunderground v.1.15,2013-01-29 20:23:00,
2013-01-29 13:28:00,16.6,13.7,30.08,NW,322,4.0,13.0,88,0.00,,,0.00,Wunderground v.1.15,2013-01-29 20:28:00,
2013-01-29 13:33:00,16.6,13.7,30.08,WNW,303,7.0,11.0,88,0.00,,,0.00,Wunderground v.1.15,2013-01-29 20:33:00,
2013-01-29 13:38:00,16.5,13.6,30.08,SW,229,5.0,13.0,88,0.00,,,0.00,Wunderground v.1.15,2013-01-29 20:38:00,
2013-01-29 13:43:00,16.4,13.5,30.08,North,360,7.0,10.0,88,0.00,,,0.00,Wunderground v.1.15,2013-01-29 20:43:00,
2013-01-29 13:48:00,16.3,13.4,30.08,NW,325,12.0,16.0,88,0.00,,,0.00,Wunderground v.1.15,2013-01-29 20:48:00,
2013-01-29 13:53:00,16.2,13.3,30.09,WNW,286,7.0,12.0,88,0.00,,,0.00,Wunderground v.1.15,2013-01-29 20:53:00,
2013-01-29 13:58:00,16.3,13.4,30.09,WNW,302,11.0,15.0,88,0.00,,,0.00,Wunderground v.1.15,2013-01-29 20:58:00,
2013-01-29 14:03:00,16.4,13.5,30.09,WNW,294,4.0,10.0,88,0.00,,,0.00,Wunderground v.1.15,2013-01-29 21:03:00,
2013-01-29 14:08:00,16.7,13.8,30.09,NW,313,9.0,14.0,88,0.00,,,0.00,Wunderground v.1.15,2013-01-29 21:08:00,
2013-01-29 14:13:00,16.9,14.0,30.10,NW,313,6.0,11.0,88,0.00,,,0.00,Wunderground v.1.15,2013-01-29 21:13:00,
2013-01-29 14:18:00,17.0,14.1,30.10,NNW,340,4.0,16.0,88,0.00,,,0.00,Wunderground v.1.15,2013-01-29 21:18:00,
2013-01-29 14:23:00,16.9,14.0,30.11,NW,307,11.0,22.0,88,0.00,,,0.00,Wunderground v.1.15,2013-01-29 21:23:00,
2013-01-29 14:28:00,16.5,13.6,30.11,NW,314,6.0,24.0,88,0.00,,,0.01,Wunderground v.1.15,2013-01-29 21:28:00,
2013-01-29 14:33:00,16.2,13.3,30.12,WSW,250,4.0,18.0,88,0.00,,,0.01,Wunderground v.1.15,2013-01-29 21:33:00,
2013-01-29 14:38:00,16.3,13.4,30.12,NW,308,12.0,20.0,88,0.00,,,0.01,Wunderground v.1.15,2013-01-29 21:38:00,
2013-01-29 14:43:00,16.3,13.4,30.13,North,349,10.0,18.0,88,0.00,,,0.01,Wunderground v.1.15,2013-01-29 21:43:00,
2013-01-29 14:48:00,16.5,13.6,30.13,WNW,294,6.0,18.0,88,0.00,,,0.01,Wunderground v.1.15,2013-01-29 21:48:00,
2013-01-29 14:53:00,16.4,13.2,30.14,NW,308,4.0,15.0,87,0.00,,,0.01,Wunderground v.1.15,2013-01-29 21:53:00,
2013-01-29 14:59:00,15.9,12.5,30.15,West,270,21.0,21.0,86,0.00,,,0.01,Wunderground v.1.15,2013-01-29 21:59:00,
2013-01-29 15:04:00,14.9,11.5,30.15,NNW,328,7.0,19.0,86,0.00,,,0.01,Wunderground v.1.15,2013-01-29 22:04:00,
2013-01-29 15:09:00,14.8,11.6,30.16,NW,311,10.0,21.0,87,0.00,,,0.01,Wunderground v.1.15,2013-01-29 22:09:00,
2013-01-29 15:14:00,14.4,11.0,30.16,WSW,240,11.0,20.0,86,0.00,,,0.01,Wunderground v.1.15,2013-01-29 22:14:00,
2013-01-29 15:19:00,13.9,10.5,30.16,WNW,296,14.0,20.0,86,0.00,,,0.01,Wunderground v.1.15,2013-01-29 22:19:00,
2013-01-29 15:24:00,13.4,10.0,30.17,NW,311,16.0,20.0,86,0.00,,,0.01,Wunderground v.1.15,2013-01-29 22:24:00,
2013-01-29 15:29:00,13.1,9.7,30.17,NW,311,8.0,20.0,86,0.00,,,0.01,Wunderground v.1.15,2013-01-29 22:29:00,
2013-01-29 15:34:00,12.7,9.0,30.17,NW,308,11.0,18.0,85,0.00,,,0.01,Wunderground v.1.15,2013-01-29 22:34:00,
2013-01-29 15:39:00,12.3,8.7,30.18,West,269,16.0,25.0,85,0.00,,,0.01,Wunderground v.1.15,2013-01-29 22:39:00,
2013-01-29 15:44:00,11.8,8.2,30.18,WSW,252,12.0,24.0,85,0.00,,,0.01,Wunderground v.1.15,2013-01-29 22:44:00,
2013-01-29 15:49:00,11.7,8.1,30.19,NW,313,12.0,26.0,85,0.00,,,0.01,Wunderground v.1.15,2013-01-29 22:49:00,
2013-01-29 15:54:00,11.0,7.4,30.19,South,182,7.0,25.0,85,0.00,,,0.01,Wunderground v.1.15,2013-01-29 22:54:00,
2013-01-29 15:59:00,10.5,6.6,30.20,NW,307,4.0,25.0,84,0.00,,,0.01,Wunderground v.1.15,2013-01-29 22:59:00,
2013-01-29 16:04:00,10.1,6.5,30.20,NW,306,4.0,24.0,85,0.00,,,0.01,Wunderground v.1.15,2013-01-29 23:04:00,
2013-01-29 16:09:00,9.9,6.3,30.21,WNW,303,9.0,24.0,85,0.00,,,0.01,Wunderground v.1.15,2013-01-29 23:09:00,
2013-01-29 16:14:00,9.5,5.6,30.21,West,281,7.0,22.0,84,0.00,,,0.01,Wunderground v.1.15,2013-01-29 23:14:00,
2013-01-29 16:19:00,9.0,5.1,30.22,NNW,331,8.0,28.0,84,0.00,,,0.01,Wunderground v.1.15,2013-01-29 23:19:00,
2013-01-29 16:24:00,8.6,4.5,30.22,South,179,8.0,16.0,83,0.00,,,0.01,Wunderground v.1.15,2013-01-29 23:24:00,
2013-01-29 16:29:00,7.9,3.8,30.22,North,10,6.0,23.0,83,0.00,,,0.01,Wunderground v.1.15,2013-01-29 23:29:00,
2013-01-29 16:34:00,7.6,3.5,30.22,NW,309,8.0,11.0,83,0.00,,,0.01,Wunderground v.1.15,2013-01-29 23:34:00,
2013-01-29 16:39:00,7.4,3.3,30.22,NW,318,21.0,25.0,83,0.00,,,0.01,Wunderground v.1.15,2013-01-29 23:39:00,
2013-01-29 16:44:00,7.3,3.2,30.23,SSE,153,5.0,18.0,83,0.00,,,0.01,Wunderground v.1.15,2013-01-29 23:44:00,
2013-01-29 16:49:00,7.2,3.1,30.23,NW,310,9.0,23.0,83,0.00,,,0.01,Wunderground v.1.15,2013-01-29 23:49:00,
2013-01-29 16:54:00,6.9,2.8,30.23,West,278,6.0,26.0,83,0.00,,,0.01,Wunderground v.1.15,2013-01-29 23:54:00,
2013-01-29 16:59:00,6.4,2.3,30.23,WSW,256,8.0,26.0,83,0.00,,,0.01,Wunderground v.1.15,2013-01-29 23:59:00,
2013-01-29 17:04:00,5.9,1.6,30.24,WNW,290,5.0,19.0,82,0.00,,,0.01,Wunderground v.1.15,2013-01-30 00:04:00,
2013-01-29 17:09:00,5.4,1.1,30.25,WNW,284,10.0,24.0,82,0.00,,,0.01,Wunderground v.1.15,2013-01-30 00:09:00,
2013-01-29 17:14:00,5.1,0.8,30.25,NNW,329,6.0,20.0,82,0.00,,,0.01,Wunderground v.1.15,2013-01-30 00:14:00,
2013-01-29 17:19:00,4.8,0.5,30.26,NNW,341,5.0,21.0,82,0.00,,,0.01,Wunderground v.1.15,2013-01-30 00:19:00,
2013-01-29 17:24:00,4.2,-0.3,30.26,North,9,5.0,18.0,81,0.00,,,0.01,Wunderground v.1.15,2013-01-30 00:24:00,
2013-01-29 17:29:00,3.7,-0.8,30.27,WNW,300,6.0,19.0,81,0.00,,,0.01,Wunderground v.1.15,2013-01-30 00:29:00,
2013-01-29 17:34:00,3.3,-1.2,30.27,WNW,290,20.0,22.0,81,0.00,,,0.01,Wunderground v.1.15,2013-01-30 00:34:00,
2013-01-29 17:39:00,2.8,-1.7,30.28,WNW,302,11.0,22.0,81,0.00,,,0.01,Wunderground v.1.15,2013-01-30 00:39:00,
2013-01-29 17:44:00,2.7,-1.8,30.28,WNW,294,5.0,13.0,81,0.00,,,0.01,Wunderground v.1.15,2013-01-30 00:44:00,
2013-01-29 17:49:00,2.4,-2.4,30.29,WSW,240,1.0,23.0,80,0.00,,,0.01,Wunderground v.1.15,2013-01-30 00:49:00,
2013-01-29 17:54:00,2.3,-2.2,30.30,North,360,1.0,9.0,81,0.00,,,0.01,Wunderground v.1.15,2013-01-30 00:54:00,
2013-01-29 17:59:00,2.3,-2.2,30.31,WSW,258,5.0,18.0,81,0.00,,,0.01,Wunderground v.1.15,2013-01-30 00:59:00,
2013-01-29 18:04:00,2.0,-2.8,30.32,WNW,286,1.0,8.0,80,0.00,,,0.01,Wunderground v.1.15,2013-01-30 01:04:00,
2013-01-29 18:09:00,1.7,-3.0,30.32,North,360,3.0,8.0,80,0.00,,,0.01,Wunderground v.1.15,2013-01-30 01:09:00,
2013-01-29 18:14:00,1.4,-3.3,30.32,NW,313,8.0,9.0,80,0.00,,,0.01,Wunderground v.1.15,2013-01-30 01:14:00,
2013-01-29 18:19:00,1.0,-3.7,30.33,NNW,330,4.0,14.0,80,0.00,,,0.01,Wunderground v.1.15,2013-01-30 01:19:00,
2013-01-29 18:24:00,0.6,-4.4,30.34,NNW,340,3.0,12.0,79,0.00,,,0.01,Wunderground v.1.15,2013-01-30 01:24:00,
2013-01-29 18:29:00,0.1,-4.9,30.34,North,355,4.0,16.0,79,0.00,,,0.01,Wunderground v.1.15,2013-01-30 01:29:00,
2013-01-29 18:34:00,0.0,-5.0,30.35,WNW,283,1.0,10.0,79,0.00,,,0.01,Wunderground v.1.15,2013-01-30 01:34:00,
2013-01-29 18:39:00,0.0,-5.0,30.36,WSW,241,4.0,14.0,79,0.00,,,0.01,Wunderground v.1.15,2013-01-30 01:39:00,
2013-01-29 18:44:00,-0.2,-5.2,30.36,NW,326,2.0,8.0,79,0.00,,,0.01,Wunderground v.1.15,2013-01-30 01:44:00,
2013-01-29 18:49:00,-0.5,-5.5,30.36,SSW,202,7.0,10.0,79,0.00,,,0.01,Wunderground v.1.15,2013-01-30 01:49:00,
2013-01-29 18:54:00,-0.9,-6.1,30.36,NW,313,14.0,21.0,78,0.00,,,0.01,Wunderground v.1.15,2013-01-30 01:54:00,
2013-01-29 18:59:00,-1.3,-6.5,30.37,NW,322,12.0,21.0,78,0.00,,,0.01,Wunderground v.1.15,2013-01-30 01:59:00,
2013-01-29 19:04:00,-1.4,-6.9,30.37,WNW,284,5.0,14.0,77,0.00,,,0.01,Wunderground v.1.15,2013-01-30 02:04:00,
2013-01-29 19:10:00,-1.4,-6.6,30.37,NW,318,7.0,18.0,78,0.00,,,0.01,Wunderground v.1.15,2013-01-30 02:10:00,
2013-01-29 19:15:00,-1.5,-6.7,30.37,SW,225,7.0,15.0,78,0.00,,,0.01,Wunderground v.1.15,2013-01-30 02:15:00,
2013-01-29 19:20:00,-1.8,-7.3,30.36,WNW,283,15.0,22.0,77,0.00,,,0.01,Wunderground v.1.15,2013-01-30 02:20:00,
2013-01-29 19:25:00,-1.9,-7.3,30.37,NW,319,14.0,14.0,77,0.00,,,0.01,Wunderground v.1.15,2013-01-30 02:25:00,
2013-01-29 19:30:00,-1.9,-7.3,30.37,WNW,298,13.0,18.0,77,0.00,,,0.01,Wunderground v.1.15,2013-01-30 02:30:00,
2013-01-29 19:35:00,-1.9,-7.3,30.37,WNW,288,10.0,13.0,77,0.00,,,0.01,Wunderground v.1.15,2013-01-30 02:35:00,
2013-01-29 19:40:00,-1.8,-7.3,30.37,WNW,292,1.0,16.0,77,0.00,,,0.01,Wunderground v.1.15,2013-01-30 02:40:00,
2013-01-29 19:45:00,-1.9,-7.6,30.37,North,351,5.0,15.0,76,0.00,,,0.01,Wunderground v.1.15,2013-01-30 02:45:00,
2013-01-29 19:50:00,-1.8,-7.3,30.37,West,275,9.0,15.0,77,0.00,,,0.01,Wunderground v.1.15,2013-01-30 02:50:00,
2013-01-29 19:55:00,-1.8,-7.3,30.37,SSE,150,5.0,14.0,77,0.00,,,0.01,Wunderground v.1.15,2013-01-30 02:55:00,
2013-01-29 20:00:00,-1.9,-7.3,30.37,NNW,327,6.0,15.0,77,0.00,,,0.01,Wunderground v.1.15,2013-01-30 03:00:00,
2013-01-29 20:05:00,-2.2,-7.6,30.38,West,275,2.0,13.0,77,0.00,,,0.01,Wunderground v.1.15,2013-01-30 03:05:00,
2013-01-29 20:10:00,-2.5,-8.2,30.38,NW,315,4.0,18.0,76,0.00,,,0.01,Wunderground v.1.15,2013-01-30 03:10:00,
2013-01-29 20:15:00,-2.7,-8.4,30.38,NW,308,14.0,16.0,76,0.00,,,0.01,Wunderground v.1.15,2013-01-30 03:15:00,
2013-01-29 20:20:00,-3.1,-9.1,30.38,NW,319,14.0,16.0,75,0.00,,,0.01,Wunderground v.1.15,2013-01-30 03:20:00,
2013-01-29 20:25:00,-3.2,-9.2,30.39,NNW,327,0.0,12.0,75,0.00,,,0.01,Wunderground v.1.15,2013-01-30 03:25:00,
2013-01-29 20:30:00,-3.1,-9.1,30.39,NNW,335,2.0,12.0,75,0.00,,,0.01,Wunderground v.1.15,2013-01-30 03:30:00,
2013-01-29 20:35:00,-3.3,-9.2,30.39,West,276,2.0,13.0,75,0.00,,,0.01,Wunderground v.1.15,2013-01-30 03:35:00,
2013-01-29 20:40:00,-3.5,-9.7,30.39,WNW,287,8.0,13.0,74,0.00,,,0.01,Wunderground v.1.15,2013-01-30 03:40:00,
2013-01-29 20:45:00,-3.7,-9.6,30.39,WNW,292,2.0,14.0,75,0.00,,,0.01,Wunderground v.1.15,2013-01-30 03:45:00,
2013-01-29 20:50:00,-3.9,-9.8,30.39,NW,310,14.0,16.0,75,0.00,,,0.01,Wunderground v.1.15,2013-01-30 03:50:00,
2013-01-29 20:55:00,-3.9,-9.6,30.38,NW,326,2.0,12.0,76,0.00,,,0.01,Wunderground v.1.15,2013-01-30 03:55:00,
2013-01-29 21:00:00,-3.8,-9.5,30.38,West,280,7.0,12.0,76,0.00,,,0.01,Wunderground v.1.15,2013-01-30 04:00:00,
2013-01-29 21:05:00,-3.8,-9.5,30.39,NW,307,0.0,10.0,76,0.00,,,0.01,Wunderground v.1.15,2013-01-30 04:05:00,
2013-01-29 21:10:00,-3.8,-9.5,30.38,WNW,300,16.0,16.0,76,0.00,,,0.01,Wunderground v.1.15,2013-01-30 04:10:00,
2013-01-29 21:15:00,-3.8,-9.7,30.39,SW,223,8.0,16.0,75,0.00,,,0.01,Wunderground v.1.15,2013-01-30 04:15:00,
2013-01-29 21:20:00,-3.7,-9.6,30.38,WNW,294,5.0,16.0,75,0.00,,,0.01,Wunderground v.1.15,2013-01-30 04:20:00,
2013-01-29 21:25:00,-3.6,-9.5,30.38,NW,323,1.0,11.0,75,0.00,,,0.01,Wunderground v.1.15,2013-01-30 04:25:00,
2013-01-29 21:30:00,-3.5,-9.4,30.38,WNW,302,8.0,11.0,75,0.00,,,0.01,Wunderground v.1.15,2013-01-30 04:30:00,
2013-01-29 21:35:00,-3.5,-9.4,30.38,West,279,0.0,14.0,75,0.00,,,0.01,Wunderground v.1.15,2013-01-30 04:35:00,
2013-01-29 21:40:00,-3.4,-9.3,30.38,NW,323,4.0,14.0,75,0.00,,,0.01,Wunderground v.1.15,2013-01-30 04:40:00,
2013-01-29 21:45:00,-3.4,-9.3,30.37,WSW,255,0.0,9.0,75,0.00,,,0.01,Wunderground v.1.15,2013-01-30 04:45:00,
2013-01-29 21:50:00,-3.3,-9.2,30.37,NW,315,0.0,9.0,75,0.00,,,0.01,Wunderground v.1.15,2013-01-30 04:50:00,
2013-01-29 21:55:00,-3.3,-9.2,30.37,West,274,3.0,12.0,75,0.00,,,0.01,Wunderground v.1.15,2013-01-30 04:55:00,
2013-01-29 22:01:00,-3.3,-9.2,30.37,NNW,346,0.0,12.0,75,0.00,,,0.01,Wunderground v.1.15,2013-01-30 05:01:00,
2013-01-29 22:02:00,-3.3,-9.2,30.37,NNW,333,1.0,4.0,75,0.00,,,0.01,Wunderground v.1.15,2013-01-30 05:02:00,
2013-01-29 22:03:00,-3.4,-9.3,30.37,West,261,1.0,7.0,75,0.00,,,0.01,Wunderground v.1.15,2013-01-30 05:03:00,
2013-01-29 22:08:00,-3.5,-9.4,30.37,NW,313,10.0,10.0,75,0.00,,,0.01,Wunderground v.1.15,2013-01-30 05:08:00,
2013-01-29 22:13:00,-3.6,-9.8,30.37,SE,127,4.0,9.0,74,0.00,,,0.01,Wunderground v.1.15,2013-01-30 05:13:00,
2013-01-29 22:18:00,-3.6,-9.8,30.37,North,360,2.0,12.0,74,0.00,,,0.01,Wunderground v.1.15,2013-01-30 05:18:00,
2013-01-29 22:23:00,-3.6,-9.8,30.37,NNW,344,1.0,7.0,74,0.00,,,0.01,Wunderground v.1.15,2013-01-30 05:23:00,
2013-01-29 22:28:00,-3.6,-9.8,30.37,WNW,288,7.0,10.0,74,0.00,,,0.01,Wunderground v.1.15,2013-01-30 05:28:00,
2013-01-29 22:33:00,-3.5,-9.4,30.37,NNW,338,0.0,5.0,75,0.00,,,0.01,Wunderground v.1.15,2013-01-30 05:33:00,
2013-01-29 22:38:00,-3.4,-9.3,30.37,West,264,1.0,7.0,75,0.00,,,0.01,Wunderground v.1.15,2013-01-30 05:38:00,
2013-01-29 22:43:00,-3.3,-9.2,30.37,NNW,340,2.0,8.0,75,0.00,,,0.01,Wunderground v.1.15,2013-01-30 05:43:00,
2013-01-29 22:48:00,-3.4,-9.3,30.37,West,259,0.0,11.0,75,0.00,,,0.01,Wunderground v.1.15,2013-01-30 05:48:00,
2013-01-29 22:53:00,-3.4,-9.3,30.37,South,187,5.0,11.0,75,0.00,,,0.01,Wunderground v.1.15,2013-01-30 05:53:00,
2013-01-29 22:58:00,-3.4,-9.3,30.36,West,263,2.0,15.0,75,0.00,,,0.01,Wunderground v.1.15,2013-01-30 05:58:00,
2013-01-29 23:03:00,-3.4,-9.1,30.36,NW,325,0.0,3.0,76,0.00,,,0.01,Wunderground v.1.15,2013-01-30 06:03:00,
2013-01-29 23:08:00,-3.3,-9.0,30.36,NW,325,5.0,8.0,76,0.00,,,0.01,Wunderground v.1.15,2013-01-30 06:08:00,
2013-01-29 23:13:00,-3.4,-9.3,30.36,WNW,303,2.0,8.0,75,0.00,,,0.01,Wunderground v.1.15,2013-01-30 06:13:00,
2013-01-29 23:18:00,-3.5,-9.2,30.35,WNW,295,0.0,8.0,76,0.00,,,0.01,Wunderground v.1.15,2013-01-30 06:18:00,
2013-01-29 23:23:00,-3.6,-9.5,30.34,WNW,303,4.0,11.0,75,0.00,,,0.01,Wunderground v.1.15,2013-01-30 06:23:00,
2013-01-29 23:28:00,-3.7,-9.6,30.35,NW,304,0.0,11.0,75,0.00,,,0.01,Wunderground v.1.15,2013-01-30 06:28:00,
2013-01-29 23:33:00,-3.7,-9.4,30.35,NW,315,3.0,8.0,76,0.00,,,0.01,Wunderground v.1.15,2013-01-30 06:33:00,
2013-01-29 23:38:00,-3.7,-9.4,30.34,WSW,248,1.0,8.0,76,0.00,,,0.01,Wunderground v.1.15,2013-01-30 06:38:00,
2013-01-29 23:43:00,-3.7,-9.4,30.34,WNW,296,1.0,5.0,76,0.00,,,0.01,Wunderground v.1.15,2013-01-30 06:43:00,
2013-01-29 23:48:00,-3.6,-9.3,30.33,West,259,0.0,7.0,76,0.00,,,0.01,Wunderground v.1.15,2013-01-30 06:48:00,
2013-01-29 23:53:00,-3.8,-9.5,30.33,WNW,290,2.0,9.0,76,0.00,,,0.01,Wunderground v.1.15,2013-01-30 06:53:00,
2013-01-29 23:58:00,-3.9,-9.6,30.33,West,275,7.0,9.0,76,0.00,,,0.01,Wunderground v.1.15,2013-01-30 06:58:00,